Time;durP1;ratioP1;P1;durP2;ratioP2;P2;SDS_P1;SDS_P2;PMS_P1;PMS_P2;Temp;Humidity;BMP_temperature;BMP_pressure;BME280_temperature;BME280_humidity;BME280_pressure;Samples;Min_cycle;Max_cycle;Signal;HPM_P1;HPM_P2
2023/01/16 00:01:22;;;;;;;88.28;6.45;;;;;;;0.34;100.00;96836.63;4986426;28;20034;-55
2023/01/16 00:03:48;;;;;;;114.13;8.00;;;;;;;0.61;100.00;96827.72;4984879;28;20560;-54
2023/01/16 00:06:14;;;;;;;110.38;7.80;;;;;;;0.63;100.00;96826.03;4989051;28;20121;-52
2023/01/16 00:08:41;;;;;;;59.70;5.18;;;;;;;0.64;100.00;96821.81;4988516;28;20034;-51
2023/01/16 00:11:06;;;;;;;91.65;6.90;;;;;;;0.58;100.00;96817.44;4988448;28;20042;-51
2023/01/16 00:13:32;;;;;;;82.32;6.25;;;;;;;0.73;100.00;96816.84;4987107;28;20087;-53
2023/01/16 00:15:57;;;;;;;57.38;4.85;;;;;;;0.81;100.00;96816.09;4986924;28;20753;-53
2023/01/16 00:18:23;;;;;;;68.88;5.68;;;;;;;0.77;100.00;96821.16;4987652;28;20486;-52
2023/01/16 00:20:48;;;;;;;63.72;5.22;;;;;;;0.77;100.00;96822.84;4988212;28;20586;-53
2023/01/16 00:23:14;;;;;;;73.28;5.68;;;;;;;0.84;100.00;96813.56;4988193;28;20526;-53
2023/01/16 00:25:41;;;;;;;59.72;5.18;;;;;;;0.94;100.00;96814.59;4989750;28;20042;-53
2023/01/16 00:28:11;;;;;;;58.08;4.95;;;;;;;0.95;100.00;96812.06;4993943;28;20101;-53
2023/01/16 00:30:37;;;;;;;58.25;5.03;;;;;;;0.88;100.00;96808.53;4995788;28;20068;-52
2023/01/16 00:33:03;;;;;;;54.20;4.45;;;;;;;0.73;100.00;96803.16;4975602;28;20030;-53
2023/01/16 00:35:28;;;;;;;66.13;5.78;;;;;;;0.73;100.00;96805.72;4993744;28;20042;-53
2023/01/16 00:37:54;;;;;;;51.17;4.70;;;;;;;0.84;100.00;96793.97;4991923;28;20022;-52
2023/01/16 00:40:19;;;;;;;64.43;5.28;;;;;;;0.90;100.00;96788.09;4989900;28;20038;-53
2023/01/16 00:42:44;;;;;;;70.85;5.45;;;;;;;1.00;100.00;96783.97;4990256;28;20022;-53
2023/01/16 00:45:10;;;;;;;57.85;4.70;;;;;;;1.13;100.00;96775.63;4991750;28;20034;-52
2023/01/16 00:47:36;;;;;;;75.03;5.88;;;;;;;1.29;100.00;96768.16;4994113;28;20470;-52
2023/01/16 00:50:02;;;;;;;61.38;4.93;;;;;;;1.24;100.00;96772.34;4993045;28;20037;-55
2023/01/16 00:52:27;;;;;;;57.38;5.00;;;;;;;1.17;100.00;96762.03;4994100;28;20038;-53
2023/01/16 00:54:52;;;;;;;53.35;4.50;;;;;;;1.13;100.00;96751.72;4994784;28;20017;-53
2023/01/16 00:57:18;;;;;;;50.85;4.65;;;;;;;1.04;100.00;96747.34;4992148;28;20030;-53
2023/01/16 00:59:43;;;;;;;80.47;6.55;;;;;;;0.92;100.00;96749.72;4993092;28;20639;-55
2023/01/16 01:02:08;;;;;;;57.80;4.63;;;;;;;0.74;100.00;96746.03;4992969;28;20062;-53
2023/01/16 01:04:34;;;;;;;54.75;4.28;;;;;;;0.72;100.00;96740.03;4992388;28;20113;-52
2023/01/16 01:06:59;;;;;;;53.80;4.57;;;;;;;0.68;100.00;96743.38;4992111;28;20038;-53
2023/01/16 01:09:24;;;;;;;49.83;4.57;;;;;;;0.61;100.00;96733.06;4992503;28;20197;-53
2023/01/16 01:11:50;;;;;;;72.55;5.68;;;;;;;0.52;100.00;96735.47;4973233;28;20035;-53
2023/01/16 01:14:15;;;;;;;59.33;5.10;;;;;;;0.48;100.00;96734.53;4989235;28;20036;-54
2023/01/16 01:16:41;;;;;;;58.58;4.78;;;;;;;0.37;100.00;96728.41;4990827;28;20129;-53
2023/01/16 01:19:06;;;;;;;60.63;5.05;;;;;;;0.34;100.00;96726.63;4992281;28;20937;-52
2023/01/16 01:21:32;;;;;;;52.75;4.30;;;;;;;0.28;100.00;96726.53;4994022;28;20034;-53
2023/01/16 01:23:57;;;;;;;73.10;5.70;;;;;;;0.22;100.00;96734.97;4991156;28;20022;-54
2023/01/16 01:26:23;;;;;;;61.33;5.15;;;;;;;0.10;100.00;96722.84;4991553;28;20038;-53
2023/01/16 01:28:48;;;;;;;64.60;5.63;;;;;;;0.01;100.00;96722.66;4992485;28;20029;-53
2023/01/16 01:31:14;;;;;;;72.57;5.35;;;;;;;-0.07;100.00;96711.44;4993365;28;20034;-53
2023/01/16 01:33:39;;;;;;;62.88;4.97;;;;;;;-0.02;100.00;96715.81;4994012;28;20045;-53
2023/01/16 01:36:06;;;;;;;68.55;5.30;;;;;;;0.02;100.00;96716.72;4991292;28;20528;-54
2023/01/16 01:38:32;;;;;;;53.78;4.63;;;;;;;0.01;100.00;96707.34;4993487;28;20515;-53
2023/01/16 01:40:58;;;;;;;54.55;4.68;;;;;;;-0.05;100.00;96705.53;4992289;28;20037;-55
2023/01/16 01:43:53;;;;;;;74.13;5.80;;;;;;;-0.05;100.00;96695.31;4992722;28;20109;-53
2023/01/16 01:46:30;;;;;;;83.05;6.35;;;;;;;-0.03;100.00;96701.28;4992127;28;20046;-54
2023/01/16 01:49:14;;;;;;;51.53;4.82;;;;;;;-0.13;100.00;96689.19;4994248;28;20134;-54
2023/01/16 01:51:42;;;;;;;41.92;3.75;;;;;;;-0.27;100.00;96683.81;4991694;28;20038;-52
2023/01/16 01:54:17;;;;;;;47.38;4.38;;;;;;;-0.29;100.00;96682.94;4994021;28;20030;-54
2023/01/16 01:56:48;;;;;;;56.65;5.43;;;;;;;-0.31;100.00;96676.94;4991913;28;20627;-52
2023/01/16 01:59:22;;;;;;;61.17;4.60;;;;;;;-0.17;100.00;96674.63;4993185;28;20079;-53
2023/01/16 02:01:49;;;;;;;66.28;5.20;;;;;;;-0.17;100.00;96672.06;4992139;28;20037;-53
2023/01/16 02:04:18;;;;;;;51.92;4.68;;;;;;;-0.23;100.00;96657.50;4992823;28;20038;-52
2023/01/16 02:06:47;;;;;;;64.05;4.97;;;;;;;-0.17;100.00;96664.41;4991841;28;20662;-52
2023/01/16 02:09:14;;;;;;;50.00;4.20;;;;;;;-0.24;100.00;96653.22;4991958;28;20046;-52
2023/01/16 02:11:51;;;;;;;61.25;5.20;;;;;;;-0.27;100.00;96650.59;4991820;28;20418;-53
2023/01/16 02:14:18;;;;;;;51.47;4.82;;;;;;;-0.32;100.00;96652.22;4993985;28;20033;-53
2023/01/16 02:19:29;;;;;;;61.60;4.93;;;;;;;-0.57;100.00;96649.19;4994189;28;20509;-54
2023/01/16 02:22:25;;;;;;;46.00;3.80;;;;;;;-0.52;100.00;96639.94;4991165;28;20789;-53
2023/01/16 02:25:18;;;;;;;68.50;5.40;;;;;;;-0.15;100.00;96637.19;4991307;28;20032;-54
2023/01/16 02:28:26;;;;;;;69.20;5.32;;;;;;;-0.19;100.00;96620.94;4993254;28;20121;-52
2023/01/16 02:31:10;;;;;;;69.47;5.47;;;;;;;-0.18;100.00;96614.97;4991873;28;20173;-54
2023/01/16 02:33:41;;;;;;;45.10;4.40;;;;;;;-0.34;100.00;96613.03;4993324;28;20470;-52
2023/01/16 02:36:41;;;;;;;56.90;4.72;;;;;;;-0.47;100.00;96602.59;4993214;28;20672;-52
2023/01/16 02:39:24;;;;;;;46.75;4.53;;;;;;;-0.57;100.00;96601.56;4991974;28;20747;-54
2023/01/16 02:41:58;;;;;;;59.25;4.88;;;;;;;-0.72;100.00;96591.03;4990442;28;20125;-52
2023/01/16 02:44:47;;;;;;;60.47;5.10;;;;;;;-0.75;100.00;96589.28;4990512;28;20050;-53
2023/01/16 02:47:46;;;;;;;66.40;5.30;;;;;;;-0.70;100.00;96572.34;4991221;28;20088;-54
2023/01/16 02:50:36;;;;;;;69.40;5.20;;;;;;;-0.40;100.00;96570.34;4989490;28;20035;-54
2023/01/16 02:53:28;;;;;;;58.80;4.88;;;;;;;-0.27;100.00;96568.84;4990842;28;20115;-53
2023/01/16 02:56:02;;;;;;;54.55;4.68;;;;;;;-0.22;100.00;96572.31;4991538;28;20065;-53
2023/01/16 02:58:30;;;;;;;54.38;4.50;;;;;;;-0.04;100.00;96563.25;4990726;28;20030;-53
2023/01/16 03:00:58;;;;;;;60.58;4.63;;;;;;;0.15;100.00;96556.69;4990491;28;20041;-53
2023/01/16 03:03:31;;;;;;;61.10;4.75;;;;;;;0.32;100.00;96548.41;4991754;28;20049;-53
2023/01/16 03:06:06;;;;;;;51.58;4.03;;;;;;;0.55;100.00;96542.75;4991634;28;20043;-53
2023/01/16 03:08:44;;;;;;;60.30;4.72;;;;;;;0.55;100.00;96524.84;4991755;28;20599;-52
2023/01/16 03:11:13;;;;;;;68.15;5.38;;;;;;;0.47;100.00;96522.19;4990798;28;20629;-53
2023/01/16 03:14:12;;;;;;;52.10;4.30;;;;;;;0.59;100.00;96527.44;4991280;28;20029;-53
2023/01/16 03:16:46;;;;;;;53.78;4.75;;;;;;;0.32;100.00;96525.38;4991563;28;20079;-52
2023/01/16 03:19:16;;;;;;;58.38;4.68;;;;;;;0.32;100.00;96504.94;4990874;28;20044;-52
2023/01/16 03:22:02;;;;;;;60.95;5.43;;;;;;;0.41;100.00;96506.75;4988727;28;20046;-52
2023/01/16 03:24:55;;;;;;;72.32;5.50;;;;;;;0.73;100.00;96499.47;4987886;28;20487;-55
2023/01/16 03:27:32;;;;;;;61.20;4.82;;;;;;;0.58;100.00;96489.91;4989240;28;20030;-52
2023/01/16 03:30:06;;;;;;;57.78;4.80;;;;;;;0.57;100.00;96482.22;4990828;28;20038;-52
2023/01/16 03:32:45;;;;;;;74.00;5.63;;;;;;;0.54;100.00;96480.50;4991141;28;20066;-56
2023/01/16 03:35:19;;;;;;;49.88;4.30;;;;;;;0.82;100.00;96478.22;4990837;28;20025;-52
2023/01/16 03:37:51;;;;;;;44.05;4.10;;;;;;;0.98;100.00;96470.72;4991268;28;20169;-54
2023/01/16 03:40:24;;;;;;;51.60;4.53;;;;;;;0.87;100.00;96460.38;4990763;28;20029;-54
2023/01/16 03:42:56;;;;;;;51.10;4.10;;;;;;;0.88;100.00;96465.50;4991639;28;20034;-52
2023/01/16 03:45:29;;;;;;;48.72;4.25;;;;;;;0.81;100.00;96455.19;4992055;28;20097;-53
2023/01/16 03:48:06;;;;;;;54.42;4.45;;;;;;;0.83;100.00;96436.47;4991628;28;20026;-53
2023/01/16 03:50:34;;;;;;;52.08;4.60;;;;;;;0.71;100.00;96426.09;4992474;28;20037;-52
2023/01/16 03:53:06;;;;;;;51.70;4.07;;;;;;;0.54;100.00;96419.09;4989602;28;20077;-52
2023/01/16 03:56:00;;;;;;;62.97;4.95;;;;;;;0.41;100.00;96414.69;4990166;28;20040;-53
2023/01/16 03:58:36;;;;;;;51.78;4.20;;;;;;;0.46;100.00;96413.91;4989682;28;20053;-53
2023/01/16 04:01:37;;;;;;;56.65;4.70;;;;;;;0.36;100.00;96391.59;4994158;28;20047;-52
2023/01/16 04:04:08;;;;;;;55.90;4.82;;;;;;;0.17;100.00;96393.09;4991978;28;20188;-52
2023/01/16 04:06:36;;;;;;;53.70;4.43;;;;;;;0.11;100.00;96387.06;4992665;28;20560;-54
2023/01/16 04:09:08;;;;;;;61.90;5.07;;;;;;;0.24;100.00;96392.31;4993929;28;20678;-51
2023/01/16 04:11:36;;;;;;;63.85;5.45;;;;;;;0.08;100.00;96376.78;4994792;28;20049;-55
2023/01/16 04:14:03;;;;;;;70.50;5.07;;;;;;;-0.02;100.00;96374.97;4993026;28;20038;-52
2023/01/16 04:16:30;;;;;;;61.17;4.85;;;;;;;-0.03;100.00;96378.38;4994050;28;20065;-51
2023/01/16 04:18:57;;;;;;;54.45;4.68;;;;;;;0.00;100.00;96375.88;4994625;28;20116;-51
2023/01/16 04:21:27;;;;;;;48.58;4.03;;;;;;;-0.06;100.00;96368.97;4995122;28;21093;-52
2023/01/16 04:23:55;;;;;;;48.45;4.65;;;;;;;-0.10;100.00;96361.25;4996341;28;20084;-51
2023/01/16 04:26:20;;;;;;;56.90;4.45;;;;;;;-0.17;100.00;96353.50;4993830;28;20030;-55
2023/01/16 04:28:46;;;;;;;52.47;4.38;;;;;;;-0.16;100.00;96347.56;4994899;28;20022;-54
2023/01/16 04:31:11;;;;;;;79.88;6.13;;;;;;;-0.09;100.00;96347.63;4992312;28;20046;-52
2023/01/16 04:33:36;;;;;;;53.97;4.30;;;;;;;-0.21;100.00;96350.88;4993974;28;20080;-55
2023/01/16 04:36:02;;;;;;;46.13;4.00;;;;;;;-0.03;100.00;96340.03;4993975;28;20068;-55
2023/01/16 04:38:27;;;;;;;59.75;4.80;;;;;;;-0.01;100.00;96330.66;4995709;28;20526;-54
2023/01/16 04:40:54;;;;;;;47.05;4.55;;;;;;;0.03;100.00;96327.31;4993566;28;20041;-52
2023/01/16 04:43:19;;;;;;;55.22;4.85;;;;;;;-0.10;100.00;96318.66;4993063;28;20404;-52
2023/01/16 04:45:46;;;;;;;63.92;4.82;;;;;;;-0.15;100.00;96317.75;4992635;28;20034;-52
2023/01/16 04:48:12;;;;;;;54.45;4.80;;;;;;;-0.06;100.00;96309.31;4992279;28;20152;-52
2023/01/16 04:50:37;;;;;;;55.97;4.30;;;;;;;-0.09;100.00;96304.16;4993718;28;20054;-52
2023/01/16 04:53:03;;;;;;;46.08;3.97;;;;;;;0.09;100.00;96291.59;4994416;28;20032;-53
2023/01/16 04:55:28;;;;;;;73.90;5.50;;;;;;;-0.06;100.00;96289.75;4993993;28;20485;-52
2023/01/16 04:57:53;;;;;;;50.70;4.18;;;;;;;0.06;100.00;96288.16;4995554;28;20913;-51
2023/01/16 05:00:19;;;;;;;50.70;4.22;;;;;;;0.02;100.00;96284.72;4995956;28;20034;-53
2023/01/16 05:02:44;;;;;;;60.72;4.82;;;;;;;0.12;100.00;96276.28;4994322;28;20447;-54
2023/01/16 05:05:10;;;;;;;50.50;4.53;;;;;;;0.04;100.00;96262.56;4993438;28;20508;-54
2023/01/16 05:07:36;;;;;;;77.25;5.55;;;;;;;-0.08;100.00;96267.56;4993687;28;20104;-52
2023/01/16 05:10:02;;;;;;;53.92;4.50;;;;;;;0.06;100.00;96265.13;4993299;28;20128;-54
2023/01/16 05:12:28;;;;;;;48.70;4.15;;;;;;;-148.24;100.00;61531.34;4991901;28;20518;-52
2023/01/16 05:14:53;;;;;;;58.97;4.45;;;;;;;-148.24;100.00;61531.34;4994865;28;20032;-51
2023/01/16 05:17:22;;;;;;;61.83;4.78;;;;;;;-148.24;100.00;61531.34;4992804;28;20034;-52
2023/01/16 05:19:48;;;;;;;92.75;6.45;;;;;;;-148.24;100.00;61531.34;4994576;28;20060;-52
2023/01/16 05:22:13;;;;;;;61.20;4.82;;;;;;;-148.24;100.00;61531.34;4994453;28;20558;-52
2023/01/16 05:24:38;;;;;;;62.80;5.00;;;;;;;-148.24;100.00;61531.34;4994126;28;20089;-54
2023/01/16 05:27:04;;;;;;;56.67;4.13;;;;;;;-148.24;100.00;61531.34;4992753;28;20143;-53
2023/01/16 05:29:29;;;;;;;57.53;4.60;;;;;;;-148.24;100.00;61531.34;4993400;28;20443;-54
2023/01/16 05:31:55;;;;;;;63.80;5.03;;;;;;;-148.24;100.00;61531.34;4992907;28;20196;-55
2023/01/16 05:34:20;;;;;;;58.70;4.78;;;;;;;-148.24;100.00;61531.34;4995206;28;20034;-52
2023/01/16 05:36:45;;;;;;;50.70;4.40;;;;;;;-148.24;100.00;61531.34;4995362;28;20042;-52
2023/01/16 05:39:11;;;;;;;60.95;4.60;;;;;;;-148.24;100.00;61531.34;4992495;28;20026;-54
2023/01/16 05:41:36;;;;;;;52.22;4.47;;;;;;;-148.24;100.00;61531.34;4993935;28;20125;-54
2023/01/16 05:44:01;;;;;;;70.93;5.22;;;;;;;-148.24;100.00;61531.34;4992820;28;20036;-52
2023/01/16 05:46:27;;;;;;;51.05;4.70;;;;;;;-148.24;100.00;61531.34;4991631;28;20247;-52
2023/01/16 05:48:52;;;;;;;58.05;4.63;;;;;;;-148.24;100.00;61531.34;4992442;28;20407;-53
2023/01/16 05:51:18;;;;;;;65.45;5.05;;;;;;;-148.24;100.00;61531.34;4991143;28;20038;-52
2023/01/16 05:53:43;;;;;;;65.78;5.15;;;;;;;-148.24;100.00;61531.34;4993040;28;20040;-52
2023/01/16 05:56:10;;;;;;;72.82;5.55;;;;;;;-148.24;100.00;61531.34;4993434;28;20038;-55
2023/01/16 05:58:36;;;;;;;62.65;4.70;;;;;;;-148.24;100.00;61531.34;4991673;28;20034;-54
2023/01/16 06:01:01;;;;;;;62.35;5.13;;;;;;;-148.24;100.00;61531.34;4992116;28;20420;-52
2023/01/16 06:03:26;;;;;;;64.53;5.15;;;;;;;-148.24;100.00;61531.34;4992204;28;20030;-52
2023/01/16 06:05:52;;;;;;;47.28;3.78;;;;;;;-148.24;100.00;61531.34;4991341;28;20030;-53
2023/01/16 06:08:17;;;;;;;80.75;6.03;;;;;;;-148.24;100.00;61531.34;4990858;28;20056;-53
2023/01/16 06:10:44;;;;;;;65.57;4.95;;;;;;;-148.24;100.00;61531.34;4988841;28;20096;-53
2023/01/16 06:13:10;;;;;;;61.00;4.63;;;;;;;-148.24;100.00;61531.34;4992111;28;20053;-52
2023/01/16 06:15:35;;;;;;;67.20;5.15;;;;;;;-148.24;100.00;61531.34;4991611;28;20034;-54
2023/01/16 06:18:01;;;;;;;52.20;4.30;;;;;;;-148.24;100.00;61531.34;4993472;28;20040;-52
2023/01/16 06:20:26;;;;;;;70.07;5.18;;;;;;;-148.24;100.00;61531.34;4990833;28;20046;-53
2023/01/16 06:22:51;;;;;;;57.00;4.65;;;;;;;-148.24;100.00;61531.34;4990316;28;20024;-54
2023/01/16 06:25:17;;;;;;;56.33;4.93;;;;;;;-148.24;100.00;61531.34;4990352;28;20049;-52
2023/01/16 06:27:46;;;;;;;70.32;5.55;;;;;;;-148.24;100.00;61531.34;4991907;28;20491;-54
2023/01/16 06:30:12;;;;;;;51.50;4.38;;;;;;;-148.24;100.00;61531.34;4991464;28;20519;-54
2023/01/16 06:32:37;;;;;;;69.18;5.75;;;;;;;-148.24;100.00;61531.34;4993172;28;20028;-55
2023/01/16 06:35:03;;;;;;;66.38;5.30;;;;;;;-148.24;100.00;61531.34;4991242;28;20125;-53
2023/01/16 06:37:28;;;;;;;56.53;5.18;;;;;;;-148.24;100.00;61531.34;4990974;28;20052;-53
2023/01/16 06:39:56;;;;;;;65.63;6.03;;;;;;;-148.24;100.00;61531.34;4989460;28;20025;-52
2023/01/16 06:42:22;;;;;;;64.88;5.82;;;;;;;-148.24;100.00;61531.34;4991385;28;20507;-52
2023/01/16 06:44:47;;;;;;;81.78;6.63;;;;;;;-148.24;100.00;61531.34;4993558;28;20037;-53
2023/01/16 06:47:12;;;;;;;63.65;5.85;;;;;;;-148.24;100.00;61531.34;4991436;28;20030;-54
2023/01/16 06:49:38;;;;;;;66.95;6.10;;;;;;;-148.24;100.00;61531.34;4990911;28;20092;-53
2023/01/16 06:52:03;;;;;;;57.63;5.80;;;;;;;-148.24;100.00;61531.34;4991841;28;20049;-52
2023/01/16 06:54:28;;;;;;;55.85;5.05;;;;;;;-148.24;100.00;61531.34;4991260;28;20091;-52
2023/01/16 06:56:54;;;;;;;59.55;5.72;;;;;;;-148.24;100.00;61531.34;4990637;28;20045;-54
2023/01/16 06:59:19;;;;;;;58.33;5.10;;;;;;;-148.24;100.00;61531.34;4990135;28;20096;-54
2023/01/16 07:01:44;;;;;;;57.80;4.95;;;;;;;-148.24;100.00;61531.34;4992645;28;20104;-53
2023/01/16 07:04:10;;;;;;;59.50;4.93;;;;;;;-148.24;100.00;61531.34;4992421;28;20037;-55
2023/01/16 07:06:36;;;;;;;57.70;5.00;;;;;;;-148.24;100.00;61531.34;4990351;28;20476;-52
2023/01/16 07:09:02;;;;;;;73.53;5.90;;;;;;;-148.24;100.00;61531.34;4990557;28;20080;-52
2023/01/16 07:11:28;;;;;;;65.30;5.28;;;;;;;-148.24;100.00;61531.34;4991877;28;20034;-53
2023/01/16 07:22:34;;;;;;;63.22;4.95;;;;;;;-148.24;100.00;61531.34;4991322;28;20443;-52
2023/01/16 07:24:55;;;;;;;58.17;4.57;;;;;;;-148.24;100.00;61531.34;4992233;28;20037;-53
2023/01/16 07:27:21;;;;;;;58.28;4.72;;;;;;;-148.24;100.00;61531.34;4991289;28;20033;-52
2023/01/16 07:29:46;;;;;;;75.43;5.63;;;;;;;-148.24;100.00;61531.34;4992221;28;20652;-53
2023/01/16 07:32:12;;;;;;;60.92;5.15;;;;;;;-148.24;100.00;61531.34;4989676;28;20069;-52
2023/01/16 07:34:37;;;;;;;69.00;5.53;;;;;;;-148.24;100.00;61531.34;4993040;28;20034;-53
2023/01/16 07:37:02;;;;;;;44.58;4.28;;;;;;;-148.24;100.00;61531.34;4997510;28;20053;-55
2023/01/16 07:39:28;;;;;;;65.80;5.50;;;;;;;-148.24;100.00;61531.34;4995053;28;20124;-54
2023/01/16 07:41:53;;;;;;;48.40;4.45;;;;;;;-148.24;100.00;61531.34;4995469;28;20531;-54
2023/01/16 07:44:18;;;;;;;62.25;4.85;;;;;;;-148.24;100.00;61531.34;4994207;28;20547;-53
2023/01/16 07:46:44;;;;;;;48.95;4.57;;;;;;;-148.24;100.00;61531.34;4994083;28;20097;-55
2023/01/16 07:49:09;;;;;;;52.63;5.00;;;;;;;-148.24;100.00;61531.34;4995501;28;20037;-54
2023/01/16 07:51:34;;;;;;;68.85;6.28;;;;;;;-148.24;100.00;61531.34;4995364;28;20034;-56
2023/01/16 07:54:00;;;;;;;46.22;4.90;;;;;;;-148.24;100.00;61531.34;4997091;28;20100;-54
2023/01/16 07:56:25;;;;;;;53.58;5.70;;;;;;;-148.24;100.00;61531.34;4995864;28;20077;-54
2023/01/16 07:58:54;;;;;;;50.53;4.80;;;;;;;-148.24;100.00;61531.34;4996045;28;20057;-55
2023/01/16 08:01:19;;;;;;;56.03;5.28;;;;;;;-148.24;100.00;61531.34;4993328;28;20917;-54
2023/01/16 08:03:45;;;;;;;71.55;5.93;;;;;;;-148.24;100.00;61531.34;4994410;28;20021;-54
2023/01/16 08:06:10;;;;;;;53.08;4.82;;;;;;;-148.24;100.00;61531.34;4994270;28;20042;-53
2023/01/16 08:08:35;;;;;;;62.53;5.32;;;;;;;-148.24;100.00;61531.34;4994571;28;20647;-53
2023/01/16 08:11:35;;;;;;;48.00;4.35;;;;;;;-148.24;100.00;61531.34;4995037;28;20061;-54
2023/01/16 08:13:49;;;;;;;70.93;5.70;;;;;;;-148.24;100.00;61531.34;4992650;28;20831;-54
2023/01/16 08:16:14;;;;;;;47.65;4.60;;;;;;;-148.24;100.00;61531.34;4993576;28;20928;-57
2023/01/16 08:18:40;;;;;;;51.00;5.22;;;;;;;-148.24;100.00;61531.34;4993664;28;20106;-54
2023/01/16 08:21:05;;;;;;;64.57;5.43;;;;;;;-148.24;100.00;61531.34;4995432;28;20046;-55
2023/01/16 08:23:30;;;;;;;53.22;5.47;;;;;;;-148.24;100.00;61531.34;4993609;28;20030;-55
2023/01/16 08:26:00;;;;;;;66.82;5.70;;;;;;;-148.24;100.00;61531.34;4994759;28;20715;-56
2023/01/16 08:28:26;;;;;;;57.03;4.85;;;;;;;-148.24;100.00;61531.34;4994468;28;20112;-54
2023/01/16 08:30:51;;;;;;;59.10;5.38;;;;;;;-148.24;100.00;61531.34;4993767;28;20034;-57
2023/01/16 08:33:16;;;;;;;54.33;4.90;;;;;;;-148.24;100.00;61531.34;4995093;28;20030;-54
2023/01/16 08:35:42;;;;;;;50.47;4.25;;;;;;;-148.24;100.00;61531.34;4995157;28;20038;-56
2023/01/16 08:38:07;;;;;;;71.38;5.85;;;;;;;-148.24;100.00;61531.34;4992959;28;20045;-55
2023/01/16 08:40:32;;;;;;;45.72;4.18;;;;;;;-148.24;100.00;61531.34;4993837;28;20046;-56
2023/01/16 08:51:22;;;;;;;63.42;5.22;;;;;;;-148.24;100.00;61531.34;4994441;28;20045;-54
2023/01/16 08:53:51;;;;;;;48.28;4.53;;;;;;;-148.24;100.00;61531.34;4992713;28;20138;-55
2023/01/16 08:56:17;;;;;;;76.20;5.88;;;;;;;-148.24;100.00;61531.34;4994077;28;20878;-54
2023/01/16 08:58:42;;;;;;;60.15;5.28;;;;;;;-148.24;100.00;61531.34;4992466;28;20479;-54
2023/01/16 09:01:08;;;;;;;61.47;5.18;;;;;;;-148.24;100.00;61531.34;4993203;28;20034;-54
2023/01/16 09:03:36;;;;;;;49.85;4.47;;;;;;;-148.24;100.00;61531.34;4993505;28;20034;-56
2023/01/16 09:06:02;;;;;;;50.88;4.57;;;;;;;-148.24;100.00;61531.34;4992067;28;20065;-57
2023/01/16 09:08:27;;;;;;;67.88;5.40;;;;;;;-148.24;100.00;61531.34;4992949;28;20022;-54
2023/01/16 09:13:49;;;;;;;60.15;5.20;;;;;;;-148.24;100.00;61531.34;4992554;28;20057;-56
2023/01/16 09:16:22;;;;;;;54.63;4.50;;;;;;;-148.24;100.00;61531.34;4994113;28;20052;-57
2023/01/16 09:18:48;;;;;;;46.50;4.43;;;;;;;-148.24;100.00;61531.34;4995792;28;20024;-56
2023/01/16 09:21:14;;;;;;;46.22;4.70;;;;;;;-148.24;100.00;61531.34;4992105;28;20146;-54
2023/01/16 09:23:39;;;;;;;60.83;5.40;;;;;;;-148.24;100.00;61531.34;4993258;28;20100;-54
2023/01/16 09:26:05;;;;;;;51.05;4.93;;;;;;;-148.24;100.00;61531.34;4991529;28;20049;-54
2023/01/16 09:28:31;;;;;;;64.80;4.95;;;;;;;-148.24;100.00;61531.34;4990654;28;20045;-54
2023/01/16 09:30:56;;;;;;;54.95;4.43;;;;;;;-148.24;100.00;61531.34;4992520;28;20037;-54
2023/01/16 09:33:22;;;;;;;41.33;4.15;;;;;;;-148.24;100.00;61531.34;4992545;28;20315;-54
2023/01/16 09:35:47;;;;;;;55.13;5.15;;;;;;;-148.24;100.00;61531.34;4994209;28;20064;-54
2023/01/16 09:38:12;;;;;;;61.22;5.07;;;;;;;-148.24;100.00;61531.34;4991754;28;20098;-54
2023/01/16 09:40:38;;;;;;;70.32;6.38;;;;;;;-148.24;100.00;61531.34;4991713;28;20319;-54
2023/01/16 09:43:38;;;;;;;50.08;4.55;;;;;;;-148.24;100.00;61531.34;4993227;28;20029;-54
2023/01/16 09:46:17;;;;;;;44.88;4.32;;;;;;;-148.24;100.00;61531.34;4992944;28;20120;-54
2023/01/16 09:49:13;;;;;;;51.55;4.78;;;;;;;-148.24;100.00;61531.34;4992824;28;20026;-56
2023/01/16 09:58:35;;;;;;;52.85;4.70;;;;;;;-148.24;100.00;61531.34;4993475;28;20034;-54
2023/01/16 10:00:16;;;;;;;52.97;5.28;;;;;;;-148.24;100.00;61531.34;4993848;28;20506;-54
2023/01/16 10:02:43;;;;;;;40.88;3.97;;;;;;;-148.24;100.00;61531.34;4990653;28;20034;-55
2023/01/16 10:05:10;;;;;;;52.92;5.45;;;;;;;-148.24;100.00;61531.34;4992854;28;20108;-54
2023/01/16 10:07:39;;;;;;;53.25;5.63;;;;;;;-148.24;100.00;61531.34;4994286;28;20022;-55
2023/01/16 10:10:20;;;;;;;70.43;6.43;;;;;;;-148.24;100.00;61531.34;4991526;28;20033;-53
2023/01/16 10:13:24;;;;;;;40.63;4.30;;;;;;;-148.24;100.00;61531.34;4990570;28;20049;-54
2023/01/16 10:16:06;;;;;;;42.90;4.70;;;;;;;-148.24;100.00;61531.34;4977866;28;20044;-54
2023/01/16 10:18:59;;;;;;;48.95;5.28;;;;;;;-148.24;100.00;61531.34;4993399;28;20105;-55
2023/01/16 10:21:34;;;;;;;43.97;4.18;;;;;;;-148.24;100.00;61531.34;4995090;28;20041;-55
2023/01/16 10:24:15;;;;;;;43.88;3.95;;;;;;;-148.24;100.00;61531.34;4994551;28;20140;-54
2023/01/16 10:27:07;;;;;;;43.65;4.47;;;;;;;-148.24;100.00;61531.34;4990982;28;20039;-55
2023/01/16 10:29:39;;;;;;;61.22;5.07;;;;;;;-148.24;100.00;61531.34;4991480;28;20033;-56
2023/01/16 10:32:24;;;;;;;;;;;;;;;-148.24;100.00;61531.34;4995127;28;20093;-54
2023/01/16 10:35:05;;;;;;;53.33;4.53;;;;;;;-148.24;100.00;61531.34;4992089;28;20501;-57
2023/01/16 10:37:31;;;;;;;54.63;4.85;;;;;;;-148.24;100.00;61531.34;4992071;28;20737;-55
2023/01/16 10:40:01;;;;;;;57.85;5.07;;;;;;;-148.24;100.00;61531.34;4992387;28;20034;-54
2023/01/16 10:51:01;;;;;;;43.92;4.15;;;;;;;-148.24;100.00;61531.34;4989863;28;20100;-54
2023/01/16 10:53:27;;;;;;;53.75;5.10;;;;;;;-148.24;100.00;61531.34;4989268;28;20061;-56
2023/01/16 10:55:54;;;;;;;41.97;4.22;;;;;;;-148.24;100.00;61531.34;4993533;28;20209;-54
2023/01/16 10:58:29;;;;;;;43.05;4.30;;;;;;;-148.24;100.00;61531.34;4992351;28;20185;-54
2023/01/16 11:01:00;;;;;;;49.05;4.38;;;;;;;-148.24;100.00;61531.34;4991230;28;20038;-54
2023/01/16 11:03:34;;;;;;;43.83;4.40;;;;;;;-148.24;100.00;61531.34;4992718;28;20357;-55
2023/01/16 11:06:11;;;;;;;43.38;4.00;;;;;;;-148.24;100.00;61531.34;4991846;28;20037;-54
2023/01/16 11:08:36;;;;;;;54.65;4.80;;;;;;;-148.24;100.00;61531.34;4991247;28;20570;-57
2023/01/16 11:11:02;;;;;;;43.85;3.92;;;;;;;-148.24;100.00;61531.34;4993045;28;20069;-56
2023/01/16 11:19:17;;;;;;;60.67;5.57;;;;;;;-148.24;100.00;61531.34;4992133;28;20045;-55
2023/01/16 11:21:49;;;;;;;59.30;6.45;;;;;;;-148.24;100.00;61531.34;4991958;28;20191;-56
2023/01/16 11:24:17;;;;;;;46.72;4.45;;;;;;;-148.24;100.00;61531.34;4993206;28;20026;-55
2023/01/16 11:26:48;;;;;;;50.80;5.22;;;;;;;-148.24;100.00;61531.34;4990908;28;20042;-55
2023/01/16 11:29:17;;;;;;;48.17;4.63;;;;;;;-148.24;100.00;61531.34;4994660;28;20030;-54
2023/01/16 11:31:53;;;;;;;56.65;4.90;;;;;;;-148.24;100.00;61531.34;4992083;28;20038;-56
2023/01/16 11:34:18;;;;;;;49.50;4.22;;;;;;;-148.24;100.00;61531.34;4992873;28;20022;-57
2023/01/16 11:36:44;;;;;;;46.67;4.60;;;;;;;-148.24;100.00;61531.34;4991955;28;20037;-56
2023/01/16 11:39:22;;;;;;;61.42;5.45;;;;;;;-148.24;100.00;61531.34;4991183;28;20029;-57
2023/01/16 11:41:50;;;;;;;46.80;4.57;;;;;;;-148.24;100.00;61531.34;4989018;28;20870;-57
2023/01/16 11:47:04;;;;;;;58.70;5.07;;;;;;;-148.24;100.00;61531.34;4989325;28;20058;-55
2023/01/16 11:49:39;;;;;;;48.05;4.32;;;;;;;-148.24;100.00;61531.34;4990011;28;20033;-55
2023/01/16 11:52:05;;;;;;;53.65;5.00;;;;;;;-148.24;100.00;61531.34;4988902;28;20048;-54
2023/01/16 11:54:33;;;;;;;52.78;4.75;;;;;;;-148.24;100.00;61531.34;4993227;28;20026;-58
2023/01/16 11:57:09;;;;;;;38.47;3.60;;;;;;;-148.24;100.00;61531.34;4990129;28;20043;-55
2023/01/16 11:59:54;;;;;;;58.70;5.05;;;;;;;-148.24;100.00;61531.34;4992016;28;20387;-55
2023/01/16 12:02:24;;;;;;;62.42;5.18;;;;;;;-148.24;100.00;61531.34;4990418;28;20030;-57
2023/01/16 12:08:09;;;;;;;51.35;4.55;;;;;;;-148.24;100.00;61531.34;4989735;28;20045;-55
2023/01/16 12:10:44;;;;;;;47.05;4.60;;;;;;;-148.24;100.00;61531.34;4989865;28;20069;-56
2023/01/16 12:15:58;;;;;;;45.08;4.25;;;;;;;-148.24;100.00;61531.34;4990329;28;20154;-54